createdAt,value
2023-03-07T00:02:51.592Z,98639.06
2023-03-07T00:07:54.493Z,98634.13
2023-03-07T00:12:58.635Z,98627.34
2023-03-07T00:18:01.327Z,98627.63
2023-03-07T00:23:04.831Z,98613.63
2023-03-07T00:28:08.836Z,98613.06
2023-03-07T00:33:11.595Z,98605.31
2023-03-07T00:38:14.265Z,98612.66
2023-03-07T00:43:18.397Z,98596.09
2023-03-07T00:48:23.279Z,98588.34
2023-03-07T00:53:26.614Z,98576.16
2023-03-07T00:58:33.002Z,98567.41
2023-03-07T01:03:36.327Z,98558.75
2023-03-07T01:08:39.071Z,98551.84
2023-03-07T01:13:43.426Z,98544.19
2023-03-07T01:18:49.288Z,98537.22
2023-03-07T01:23:52.479Z,98528.63
2023-03-07T01:28:58.491Z,98521.69
2023-03-07T01:34:02.300Z,98516.72
2023-03-07T01:39:10.366Z,98503.59
2023-03-07T01:44:19.639Z,98495.81
2023-03-07T01:49:27.834Z,98490.75
2023-03-07T01:54:38.082Z,98467.81
2023-03-07T01:59:46.598Z,98467.13
2023-03-07T02:04:54.852Z,98469.25
2023-03-07T02:09:59.310Z,98460.63
2023-03-07T02:15:04.999Z,98451.03
2023-03-07T02:20:23.202Z,98430.66
2023-03-07T02:25:33.702Z,98428.41
2023-03-07T02:30:39.167Z,98420.47
2023-03-07T02:35:42.106Z,98417.94
2023-03-07T02:40:45.365Z,98419.94
2023-03-07T02:45:49.464Z,98404.09
2023-03-07T02:50:52.502Z,98398.03
2023-03-07T02:55:55.385Z,98389.28
2023-03-07T03:01:00.050Z,98381.31
2023-03-07T03:06:02.799Z,98370.06
2023-03-07T03:11:06.252Z,98365.63
2023-03-07T03:16:12.714Z,98361.56
2023-03-07T03:21:15.915Z,98353.50
2023-03-07T03:26:18.813Z,98342.88
2023-03-07T03:31:23.242Z,98328.75
2023-03-07T03:36:27.373Z,98324.38
2023-03-07T03:41:35.880Z,98317.44
2023-03-07T03:46:40.117Z,98311.38
2023-03-07T03:51:43.376Z,98304.50
2023-03-07T03:56:46.420Z,98295.59
2023-03-07T04:01:50.630Z,98294.88
2023-03-07T04:06:54.921Z,98285.09
2023-03-07T04:11:57.765Z,98279.88
2023-03-07T04:17:01.921Z,98271.94
2023-03-07T04:22:05.117Z,98265.88
2023-03-07T04:27:08.287Z,98259.81
2023-03-07T04:32:14.033Z,98244.69
2023-03-07T04:37:16.937Z,98245.81
2023-03-07T04:42:19.945Z,98234.22
2023-03-07T04:47:24.048Z,98230.03
2023-03-07T04:52:26.818Z,98235.50
2023-03-07T04:57:30.967Z,98220.25
2023-03-07T05:02:35.914Z,98217.72
2023-03-07T05:07:39.244Z,98202.75
2023-03-07T05:12:42.589Z,98194.97
2023-03-07T05:17:48.802Z,98198.50
2023-03-07T05:22:51.921Z,98196.13
2023-03-07T05:27:54.817Z,98192.88
2023-03-07T05:32:58.965Z,98188.38
2023-03-07T05:38:02.057Z,98193.88
2023-03-07T05:43:07.161Z,98197.41
2023-03-07T05:48:12.111Z,98192.34
2023-03-07T05:53:15.015Z,98194.19
2023-03-07T05:58:17.871Z,98198.00
2023-03-07T06:03:23.809Z,98208.91
2023-03-07T06:08:26.699Z,98205.66
2023-03-07T06:13:31.117Z,98210.03
2023-03-07T06:18:35.298Z,98202.97
2023-03-07T06:23:38.265Z,98206.78
2023-03-07T06:28:46.192Z,98209.63
2023-03-07T06:33:52.560Z,98224.06
2023-03-07T06:38:56.302Z,98214.31
2023-03-07T06:44:00.508Z,98215.31
2023-03-07T06:49:07.749Z,98219.69
2023-03-07T06:54:11.562Z,98218.13
2023-03-07T06:59:15.893Z,98207.38
2023-03-07T07:04:20.014Z,98212.91
2023-03-07T07:09:24.413Z,98218.28
2023-03-07T07:14:27.392Z,98209.38
2023-03-07T07:19:31.876Z,98211.22
2023-03-07T07:24:35.399Z,98208.53
2023-03-07T07:29:38.166Z,98208.53
2023-03-07T07:34:42.732Z,98204.84
2023-03-07T07:39:45.996Z,98202.31
2023-03-07T07:44:49.059Z,98199.50
2023-03-07T07:49:53.448Z,98194.28
2023-03-07T07:54:56.514Z,98204.84
2023-03-07T08:00:00.303Z,98201.31
2023-03-07T08:05:08.296Z,98193.72
2023-03-07T08:10:15.649Z,98190.44
2023-03-07T08:15:21.436Z,98196.22
2023-03-07T08:20:25.672Z,98199.97
2023-03-07T08:25:28.431Z,98194.44
2023-03-07T08:30:33.393Z,98182.81
2023-03-07T08:35:37.439Z,98174.69
2023-03-07T08:40:40.415Z,98171.78
2023-03-07T08:45:43.201Z,98168.63
2023-03-07T08:50:48.168Z,98162.06
2023-03-07T08:55:50.924Z,98169.19
2023-03-07T09:00:53.753Z,98165.78
2023-03-07T09:05:57.943Z,98162.38
2023-03-07T09:11:03.400Z,98161.59
2023-03-07T09:16:07.073Z,98156.63
2023-03-07T09:21:11.142Z,98142.88
2023-03-07T09:26:14.125Z,98130.97
2023-03-07T09:31:17.582Z,98130.69
2023-03-07T09:36:21.796Z,98129.22
2023-03-07T09:41:43.650Z,98128.88
2023-03-07T09:47:03.263Z,98136.53
2023-03-07T09:52:15.125Z,98121.38
2023-03-07T09:57:24.000Z,98116.78
2023-03-07T10:02:30.575Z,98117.00
2023-03-07T10:07:36.580Z,98107.94
2023-03-07T10:13:02.797Z,98103.09
2023-03-07T10:18:16.183Z,98104.47
2023-03-07T10:23:33.029Z,98096.94
2023-03-07T10:28:40.711Z,98095.09
2023-03-07T10:33:47.414Z,98091.25
2023-03-07T10:39:02.654Z,98083.03
2023-03-07T10:44:05.507Z,98079.34
2023-03-07T10:49:13.948Z,98080.84
2023-03-07T10:54:22.045Z,98078.16
2023-03-07T10:59:26.339Z,98085.38
2023-03-07T11:04:43.372Z,98066.56
2023-03-07T11:09:49.573Z,98058.50
2023-03-07T11:14:54.867Z,98063.88
2023-03-07T11:19:58.601Z,98039.69
2023-03-07T11:25:07.580Z,98044.09
2023-03-07T11:30:25.044Z,98026.22
2023-03-07T11:35:47.326Z,98023.53
2023-03-07T11:40:57.724Z,98006.56
2023-03-07T11:46:08.196Z,98010.28
2023-03-07T11:51:31.760Z,97995.69
2023-03-07T11:56:40.638Z,97982.06
2023-03-07T12:01:52.504Z,97970.31
2023-03-07T12:07:12.116Z,97976.53
2023-03-07T12:12:30.268Z,97970.97
2023-03-07T12:17:47.750Z,97977.19
2023-03-07T12:23:02.267Z,97970.00
2023-03-07T12:28:18.723Z,97978.91
2023-03-07T12:33:27.713Z,97956.56
2023-03-07T12:38:39.829Z,97953.00
2023-03-07T12:43:47.948Z,97953.88
2023-03-07T12:48:59.908Z,97949.47
2023-03-07T12:54:11.322Z,97961.06
2023-03-07T12:59:16.952Z,97966.44
2023-03-07T13:04:26.016Z,97977.06
2023-03-07T13:09:32.247Z,97993.03
2023-03-07T13:14:46.926Z,97993.03
2023-03-07T13:19:54.977Z,97982.25
2023-03-07T13:24:58.801Z,98002.78
2023-03-07T13:30:19.872Z,97979.56
2023-03-07T13:35:54.424Z,97983.44
2023-03-07T13:40:58.907Z,97977.91
2023-03-07T13:46:04.442Z,97972.34
2023-03-07T13:51:09.188Z,97960.75
2023-03-07T13:56:26.236Z,97962.59
2023-03-07T14:01:36.361Z,97962.91
2023-03-07T14:06:42.614Z,97971.13
2023-03-07T14:11:54.438Z,97959.72
2023-03-07T14:17:09.383Z,97970.47
2023-03-07T14:22:23.275Z,97970.47
2023-03-07T14:27:26.160Z,97972.44
2023-03-07T14:32:32.137Z,97970.78
2023-03-07T14:37:34.877Z,97978.84
2023-03-07T14:42:46.110Z,97970.56
2023-03-07T14:48:13.139Z,97977.41
2023-03-07T14:53:21.181Z,97983.41
2023-03-07T14:58:27.197Z,97991.13
2023-03-07T15:03:32.544Z,98006.41
2023-03-07T15:08:38.349Z,98024.22
2023-03-07T15:13:45.807Z,98042.88
2023-03-07T15:18:54.404Z,98048.13
2023-03-07T15:23:59.224Z,98060.56
2023-03-07T15:29:06.302Z,98061.41
2023-03-07T15:34:24.380Z,98061.41
2023-03-07T15:39:34.533Z,98062.22
2023-03-07T15:44:38.173Z,98060.22
2023-03-07T15:49:45.994Z,98072.81
2023-03-07T15:54:52.571Z,98091.63
2023-03-07T15:59:59.200Z,98083.66
2023-03-07T16:05:04.803Z,98090.78
2023-03-07T16:10:08.170Z,98096.06
2023-03-07T16:15:14.644Z,98113.41
2023-03-07T16:20:21.251Z,98116.47
2023-03-07T16:25:27.453Z,98113.50
2023-03-07T16:30:30.512Z,98116.69
2023-03-07T16:35:35.381Z,98119.06
2023-03-07T16:40:42.182Z,98130.69
2023-03-07T16:45:44.971Z,98134.91
2023-03-07T16:50:49.033Z,98139.16
2023-03-07T16:55:52.305Z,98139.00
2023-03-07T17:00:55.903Z,98146.59
2023-03-07T17:06:00.408Z,98146.28
2023-03-07T17:11:03.549Z,98144.28
2023-03-07T17:16:06.633Z,98152.56
2023-03-07T17:21:13.778Z,98168.06
2023-03-07T17:26:29.686Z,98164.06
2023-03-07T17:31:32.507Z,98172.81
2023-03-07T17:36:36.620Z,98176.06
2023-03-07T17:41:39.394Z,98182.94
2023-03-07T17:46:42.135Z,98180.09
2023-03-07T17:51:46.687Z,98179.59
2023-03-07T17:56:49.373Z,98184.13
2023-03-07T18:01:52.145Z,98189.19
2023-03-07T18:06:56.322Z,98193.88
2023-03-07T18:11:59.145Z,98194.25
2023-03-07T18:17:01.847Z,98199.47
2023-03-07T18:22:06.261Z,98200.47
2023-03-07T18:27:10.052Z,98207.38
2023-03-07T18:32:13.081Z,98212.78
2023-03-07T18:37:17.384Z,98209.94
2023-03-07T18:42:20.094Z,98209.09
2023-03-07T18:47:22.756Z,98218.53
2023-03-07T18:52:26.800Z,98216.84
2023-03-07T18:57:29.486Z,98210.81
2023-03-07T19:02:32.408Z,98214.06
2023-03-07T19:07:36.572Z,98207.97
2023-03-07T19:12:39.355Z,98209.81
2023-03-07T19:17:42.462Z,98207.47
2023-03-07T19:22:46.491Z,98206.13
2023-03-07T19:27:49.330Z,98211.72
2023-03-07T19:32:52.025Z,98215.56
2023-03-07T19:37:56.082Z,98222.88
2023-03-07T19:42:58.983Z,98219.47
2023-03-07T19:48:01.857Z,98227.06
2023-03-07T19:53:06.097Z,98229.59
2023-03-07T19:58:08.895Z,98213.31
2023-03-07T20:03:13.987Z,98222.91
2023-03-07T20:08:18.041Z,98240.63
2023-03-07T20:13:21.015Z,98240.06
2023-03-07T20:18:23.657Z,98248.56
2023-03-07T20:23:27.679Z,98254.44
2023-03-07T20:28:30.359Z,98260.84
2023-03-07T20:33:33.072Z,98268.78
2023-03-07T20:38:38.350Z,98266.59
2023-03-07T20:43:41.689Z,98272.84
2023-03-07T20:48:44.826Z,98266.94
2023-03-07T20:53:51.019Z,98268.44
2023-03-07T20:58:54.786Z,98270.00
2023-03-07T21:04:03.871Z,98272.31
2023-03-07T21:09:10.095Z,98280.25
2023-03-07T21:14:13.284Z,98287.59
2023-03-07T21:19:16.324Z,98292.88
2023-03-07T21:24:20.393Z,98303.69
2023-03-07T21:29:23.049Z,98312.47
2023-03-07T21:34:25.928Z,98314.00
2023-03-07T21:39:29.986Z,98335.53
2023-03-07T21:44:33.053Z,98331.72
2023-03-07T21:49:35.836Z,98337.09
2023-03-07T21:54:39.881Z,98350.88
2023-03-07T21:59:42.685Z,98353.75
2023-03-07T22:04:45.335Z,98360.66
2023-03-07T22:09:49.411Z,98367.22
2023-03-07T22:14:52.140Z,98383.38
2023-03-07T22:19:54.847Z,98378.63
2023-03-07T22:24:58.908Z,98378.63
2023-03-07T22:30:01.614Z,98375.22
2023-03-07T22:35:04.924Z,98381.78
2023-03-07T22:40:11.482Z,98388.19
2023-03-07T22:45:14.594Z,98380.41
2023-03-07T22:50:17.955Z,98369.78
2023-03-07T22:55:21.994Z,98396.03
2023-03-07T23:00:25.510Z,98413.19
2023-03-07T23:05:28.349Z,98417.03
2023-03-07T23:10:32.593Z,98407.03
2023-03-07T23:15:35.376Z,98408.81
2023-03-07T23:20:38.799Z,98410.88
2023-03-07T23:25:43.530Z,98413.63
2023-03-07T23:30:46.311Z,98436.72
2023-03-07T23:35:49.107Z,98436.44
2023-03-07T23:40:53.340Z,98431.59
2023-03-07T23:45:56.274Z,98435.69
2023-03-07T23:50:59.067Z,98434.38
2023-03-07T23:56:05.911Z,98439.25
